createdAt,value
2023-05-19T00:00:31.319Z,3.05
2023-05-19T00:05:10.665Z,2.47
2023-05-19T00:09:28.597Z,3.33
2023-05-19T00:13:49.962Z,3.03
2023-05-19T00:18:09.273Z,2.78
2023-05-19T00:22:26.939Z,3.97
2023-05-19T00:26:44.582Z,4.45
2023-05-19T00:31:02.964Z,3.55
2023-05-19T00:35:20.921Z,3.10
2023-05-19T00:39:38.613Z,4.55
2023-05-19T00:43:56.395Z,2.80
2023-05-19T00:48:14.100Z,3.10
2023-05-19T00:52:32.017Z,2.13
2023-05-19T00:56:50.190Z,2.00
2023-05-19T01:05:26.860Z,1.80
2023-05-19T01:14:03.064Z,3.63
2023-05-19T01:18:33.548Z,4.15
2023-05-19T01:23:41.288Z,5.30
2023-05-19T01:28:29.591Z,2.40
2023-05-19T01:32:48.966Z,2.70
2023-05-19T01:37:08.256Z,2.67
2023-05-19T01:41:28.820Z,3.22
2023-05-19T01:45:47.340Z,2.45
2023-05-19T01:50:05.400Z,3.40
2023-05-19T01:54:23.104Z,2.22
2023-05-19T01:58:53.545Z,1.75
2023-05-19T02:03:38.962Z,1.85
2023-05-19T02:08:20.871Z,2.78
2023-05-19T02:12:40.736Z,3.38
2023-05-19T02:16:59.632Z,3.20
2023-05-19T02:21:17.467Z,2.10
2023-05-19T02:25:35.313Z,2.25
2023-05-19T02:29:53.506Z,2.65
2023-05-19T02:34:11.387Z,5.75
2023-05-19T02:38:28.941Z,4.53
2023-05-19T02:42:46.451Z,1.55
2023-05-19T02:47:05.175Z,2.42
2023-05-19T02:51:22.701Z,4.00
2023-05-19T02:55:40.363Z,3.05
2023-05-19T02:59:57.961Z,4.10
2023-05-19T03:04:16.024Z,2.15
2023-05-19T03:08:33.529Z,3.63
2023-05-19T03:12:51.760Z,2.75
2023-05-19T03:21:29.076Z,2.05
2023-05-19T03:25:46.636Z,2.88
2023-05-19T03:30:07.583Z,4.55
2023-05-19T03:34:25.189Z,3.38
2023-05-19T03:38:43.589Z,4.95
2023-05-19T03:43:03.067Z,3.63
2023-05-19T03:47:21.179Z,3.17
2023-05-19T03:51:38.773Z,4.22
2023-05-19T03:55:57.424Z,3.10
2023-05-19T04:00:16.326Z,2.55
2023-05-19T04:04:34.089Z,2.03
2023-05-19T04:08:52.077Z,2.42
2023-05-19T04:13:10.271Z,4.30
2023-05-19T04:21:47.118Z,7.07
2023-05-19T04:30:26.146Z,8.32
2023-05-19T04:34:46.147Z,2.53
2023-05-19T04:39:07.689Z,4.05
2023-05-19T04:43:25.677Z,4.03
2023-05-19T04:47:43.253Z,2.67
2023-05-19T04:52:02.346Z,2.80
2023-05-19T04:56:19.844Z,3.55
2023-05-19T05:00:38.484Z,3.25
2023-05-19T05:04:56.989Z,3.05
2023-05-19T05:09:15.906Z,5.00
2023-05-19T05:13:34.482Z,5.38
2023-05-19T05:17:52.425Z,3.25
2023-05-19T05:22:12.376Z,5.22
2023-05-19T05:26:33.413Z,2.72
2023-05-19T05:30:52.299Z,3.40
2023-05-19T05:35:10.375Z,7.85
2023-05-19T05:39:29.255Z,5.22
2023-05-19T05:43:46.762Z,4.45
2023-05-19T05:48:05.514Z,6.05
2023-05-19T05:52:31.030Z,9.52
2023-05-19T05:56:49.464Z,10.40
2023-05-19T06:01:12.068Z,5.90
2023-05-19T06:05:29.694Z,3.50
2023-05-19T06:09:47.786Z,6.28
2023-05-19T06:14:05.498Z,4.28
2023-05-19T06:18:23.129Z,9.13
2023-05-19T06:22:42.363Z,5.60
2023-05-19T06:27:00.680Z,3.88
2023-05-19T06:31:18.704Z,3.17
2023-05-19T06:35:36.286Z,4.32
2023-05-19T06:39:55.293Z,5.13
2023-05-19T06:44:12.825Z,9.32
2023-05-19T06:52:49.772Z,7.13
2023-05-19T06:57:07.401Z,9.95
2023-05-19T07:01:27.148Z,6.43
2023-05-19T07:05:44.684Z,5.80
2023-05-19T07:10:03.175Z,5.50
2023-05-19T07:14:22.084Z,4.43
2023-05-19T07:18:39.694Z,3.17
2023-05-19T07:22:58.040Z,2.88
2023-05-19T07:27:16.432Z,4.18
2023-05-19T07:31:34.473Z,2.78
2023-05-19T07:35:52.825Z,4.93
2023-05-19T07:40:11.014Z,3.65
2023-05-19T07:48:46.730Z,4.82
2023-05-19T07:53:04.988Z,3.60
2023-05-19T07:57:23.750Z,3.75
2023-05-19T08:01:41.871Z,3.75
2023-05-19T08:05:59.689Z,3.75
2023-05-19T08:10:19.045Z,3.88
2023-05-19T08:14:37.639Z,3.30
2023-05-19T08:18:56.329Z,3.72
2023-05-19T08:23:14.511Z,8.68
2023-05-19T08:27:34.817Z,7.35
2023-05-19T08:31:53.394Z,3.50
2023-05-19T08:36:12.133Z,4.22
2023-05-19T08:40:32.121Z,6.05
2023-05-19T08:44:49.997Z,4.65
2023-05-19T08:49:13.683Z,3.30
2023-05-19T08:53:40.041Z,4.00
2023-05-19T08:57:57.658Z,5.30
2023-05-19T09:02:16.460Z,4.35
2023-05-19T09:06:36.106Z,2.85
2023-05-19T09:10:53.672Z,4.20
2023-05-19T09:15:16.300Z,4.72
2023-05-19T09:19:33.982Z,4.45
2023-05-19T09:23:51.831Z,6.00
2023-05-19T09:28:09.829Z,7.25
2023-05-19T09:32:28.924Z,6.13
2023-05-19T09:36:51.993Z,2.83
2023-05-19T09:41:10.864Z,4.07
2023-05-19T09:45:28.761Z,3.80
2023-05-19T09:49:49.524Z,3.97
2023-05-19T09:54:10.354Z,4.78
2023-05-19T09:58:35.664Z,3.55
2023-05-19T10:02:55.104Z,4.03
2023-05-19T10:07:14.858Z,2.75
2023-05-19T10:11:32.660Z,4.40
2023-05-19T10:20:18.028Z,3.70
2023-05-19T10:24:35.756Z,3.25
2023-05-19T10:28:53.677Z,3.72
2023-05-19T10:33:22.803Z,3.80
2023-05-19T10:38:25.446Z,4.15
2023-05-19T10:42:59.464Z,3.55
2023-05-19T10:47:25.867Z,4.53
2023-05-19T10:51:46.532Z,2.97
2023-05-19T10:56:04.484Z,2.97
2023-05-19T11:00:32.732Z,4.65
2023-05-19T11:04:52.164Z,3.47
2023-05-19T11:09:13.860Z,4.38
2023-05-19T11:13:32.288Z,4.72
2023-05-19T11:17:51.962Z,4.05
2023-05-19T11:22:14.437Z,5.03
2023-05-19T11:26:43.438Z,9.20
2023-05-19T11:31:02.946Z,5.50
2023-05-19T11:35:21.622Z,4.75
2023-05-19T11:39:41.249Z,3.88
2023-05-19T11:43:58.872Z,10.02
2023-05-19T11:48:17.632Z,5.13
2023-05-19T11:52:35.752Z,6.55
2023-05-19T12:01:11.486Z,3.08
2023-05-19T12:05:30.301Z,3.92
2023-05-19T12:09:48.630Z,4.03
2023-05-19T12:14:07.323Z,3.03
2023-05-19T12:18:31.774Z,5.45
2023-05-19T12:22:49.922Z,4.90
2023-05-19T12:27:20.998Z,3.90
2023-05-19T12:31:39.842Z,4.13
2023-05-19T12:35:57.925Z,5.72
2023-05-19T12:44:50.848Z,4.93
2023-05-19T12:49:09.534Z,4.45
2023-05-19T12:53:29.812Z,4.97
2023-05-19T12:57:55.010Z,5.47
2023-05-19T13:02:14.532Z,7.28
2023-05-19T13:06:33.303Z,7.25
2023-05-19T13:10:51.273Z,5.72
2023-05-19T13:15:09.740Z,4.10
2023-05-19T13:19:29.510Z,5.72
2023-05-19T13:23:47.816Z,5.28
2023-05-19T13:28:07.453Z,5.15
2023-05-19T13:32:25.057Z,4.07
2023-05-19T13:36:49.125Z,7.78
2023-05-19T13:41:10.675Z,3.85
2023-05-19T13:45:28.919Z,4.25
2023-05-19T13:54:06.302Z,4.57
2023-05-19T13:58:24.650Z,3.70
2023-05-19T14:02:43.070Z,3.90
2023-05-19T14:07:00.927Z,4.15
2023-05-19T14:11:23.282Z,5.30
2023-05-19T14:15:40.940Z,5.88
2023-05-19T14:20:00.837Z,5.35
2023-05-19T14:24:18.531Z,3.80
2023-05-19T14:28:36.650Z,4.13
2023-05-19T14:37:12.849Z,4.45
2023-05-19T14:41:30.402Z,8.20
2023-05-19T14:45:49.595Z,15.20
2023-05-19T14:50:08.214Z,11.85
2023-05-19T14:54:25.948Z,11.02
2023-05-19T14:58:44.679Z,18.85
2023-05-19T15:03:02.730Z,16.73
2023-05-19T15:07:21.841Z,10.13
2023-05-19T15:11:40.091Z,20.75
2023-05-19T15:16:12.327Z,18.88
2023-05-19T15:20:38.557Z,17.38
2023-05-19T15:24:56.844Z,23.52
2023-05-19T15:29:14.485Z,19.50
2023-05-19T15:33:32.643Z,15.73
2023-05-19T15:42:08.624Z,30.98
2023-05-19T15:46:26.671Z,40.00
2023-05-19T15:55:02.023Z,8.25
2023-05-19T15:59:23.665Z,24.00
2023-05-19T16:03:41.289Z,24.17
2023-05-19T16:07:59.771Z,19.27
2023-05-19T16:12:17.315Z,21.33
2023-05-19T16:16:35.795Z,15.23
2023-05-19T16:20:55.852Z,15.00
2023-05-19T16:25:14.743Z,11.07
2023-05-19T16:29:32.777Z,17.23
2023-05-19T16:33:50.755Z,20.88
2023-05-19T16:38:08.331Z,10.88
2023-05-19T16:42:26.772Z,10.93
2023-05-19T16:46:44.464Z,8.20
2023-05-19T16:51:03.252Z,11.48
2023-05-19T16:55:21.192Z,8.98
2023-05-19T16:59:43.435Z,34.80
2023-05-19T17:04:01.039Z,7.57
2023-05-19T17:08:19.773Z,15.32
2023-05-19T17:12:37.796Z,12.57
2023-05-19T17:16:56.322Z,17.15
2023-05-19T17:21:14.271Z,30.23
2023-05-19T17:25:35.519Z,14.30
2023-05-19T17:29:53.168Z,8.75
2023-05-19T17:38:29.987Z,15.88
2023-05-19T17:42:48.088Z,48.72
2023-05-19T17:47:08.347Z,21.10
2023-05-19T17:51:27.149Z,17.17
2023-05-19T17:55:51.931Z,107.60
2023-05-19T18:00:12.407Z,52.38
2023-05-19T18:04:31.362Z,49.88
2023-05-19T18:08:52.188Z,35.65
2023-05-19T18:13:14.188Z,12.63
2023-05-19T18:17:31.936Z,45.05
2023-05-19T18:26:14.704Z,61.90
2023-05-19T18:30:32.495Z,109.85
2023-05-19T18:34:50.848Z,115.50
2023-05-19T18:43:26.843Z,84.22
2023-05-19T18:47:44.491Z,100.68
2023-05-19T18:52:02.343Z,36.90
2023-05-19T18:56:26.332Z,40.55
2023-05-19T19:00:44.183Z,75.05
2023-05-19T19:05:04.214Z,92.32
2023-05-19T19:09:22.013Z,61.38
2023-05-19T19:13:40.275Z,32.63
2023-05-19T19:17:57.875Z,34.20
2023-05-19T19:22:17.108Z,23.30
2023-05-19T19:26:34.858Z,19.65
2023-05-19T19:30:58.948Z,36.63
2023-05-19T19:35:16.847Z,14.80
2023-05-19T19:39:36.563Z,18.92
2023-05-19T19:43:54.109Z,21.17
2023-05-19T19:48:12.721Z,15.85
2023-05-19T19:52:30.669Z,14.48
2023-05-19T19:56:48.879Z,19.17
2023-05-19T20:01:09.303Z,12.00
2023-05-19T20:05:28.271Z,19.02
2023-05-19T20:09:47.856Z,14.40
2023-05-19T20:14:05.992Z,18.98
2023-05-19T20:18:27.876Z,18.83
2023-05-19T20:22:46.621Z,20.23
2023-05-19T20:27:04.683Z,14.77
2023-05-19T20:31:24.125Z,15.30
2023-05-19T20:35:41.828Z,14.10
2023-05-19T20:39:59.999Z,13.63
2023-05-19T20:44:17.581Z,10.25
2023-05-19T20:48:35.792Z,12.95
2023-05-19T20:57:15.084Z,10.98
2023-05-19T21:01:32.726Z,11.50
2023-05-19T21:05:51.354Z,13.02
2023-05-19T21:10:10.155Z,9.80
2023-05-19T21:14:27.761Z,11.32
2023-05-19T21:18:45.930Z,14.77
2023-05-19T21:23:04.893Z,12.32
2023-05-19T21:27:24.867Z,13.63
2023-05-19T21:31:42.565Z,16.23
2023-05-19T21:36:00.647Z,14.15
2023-05-19T21:44:37.396Z,14.90
2023-05-19T21:48:55.110Z,16.15
2023-05-19T21:53:13.186Z,12.73
2023-05-19T21:57:32.234Z,12.13
2023-05-19T22:01:50.842Z,11.43
2023-05-19T22:06:08.493Z,13.80
2023-05-19T22:10:27.599Z,12.95
2023-05-19T22:14:45.945Z,11.82
2023-05-19T22:23:22.970Z,8.73
2023-05-19T22:31:58.764Z,8.85
2023-05-19T22:36:16.664Z,10.38
2023-05-19T22:40:35.642Z,10.30
2023-05-19T22:44:53.514Z,10.90
2023-05-19T22:49:11.826Z,10.63
2023-05-19T22:53:29.370Z,10.85
2023-05-19T22:57:47.283Z,10.80
2023-05-19T23:02:06.201Z,11.40
2023-05-19T23:06:24.128Z,9.77
2023-05-19T23:10:41.622Z,10.98
2023-05-19T23:15:00.423Z,9.98
2023-05-19T23:19:18.676Z,11.43
2023-05-19T23:27:55.846Z,10.52
2023-05-19T23:36:31.913Z,9.60
2023-05-19T23:40:49.482Z,11.25
2023-05-19T23:45:08.677Z,10.73
2023-05-19T23:49:26.372Z,12.45
2023-05-19T23:53:44.134Z,11.35
2023-05-19T23:58:02.327Z,10.55
